Byromville, Georgia
Current Conditions -  °F | °C
As of 11:35 AM on Thursday 30 Oct 2014 (Local Time) from KACJ Reporting Station
Clear Clear  
Wind Chill: 17°   Ceiling: Unl
Heat Index: 17°   Visibility: 10mi
Dew Point:   Wind: 8mph
Humidity: 55%   Direction: 40°NE
Pressure: 30.07"   Gusts: NA
Location:  32.2°N, 83.91°W
Report Text: KACJ 301535Z AUTO 04007KT 10SM CLR 17/08 A3007 RMK AO2
Loading
Personal Weather Stations






























Interactive Weather Map
Tropical Storm Tracking
New forecast layout! Learn more

10-Day Weather Forecast

Advertisements
Track Severe Weather on mobile